createdAt,value
2018-09-25T00:01:44.126Z,100653.33
2018-09-25T00:04:17.702Z,100655.23
2018-09-25T00:06:51.477Z,100659.91
2018-09-25T00:09:25.142Z,100661.65
2018-09-25T00:11:58.604Z,100668.78
2018-09-25T00:14:32.383Z,100670.53
2018-09-25T00:17:06.208Z,100662.86
2018-09-25T00:19:39.781Z,100667.56
2018-09-25T00:22:13.371Z,100669.48
2018-09-25T00:24:47.130Z,100665.58
2018-09-25T00:27:20.891Z,100658.41
2018-09-25T00:29:54.690Z,100662.46
2018-09-25T00:32:28.174Z,100659.81
2018-09-25T00:35:01.862Z,100657.77
2018-09-25T00:37:35.730Z,100664.91
2018-09-25T00:40:09.350Z,100667.91
2018-09-25T00:42:43.012Z,100666.91
2018-09-25T00:45:16.707Z,100667.97
2018-09-25T00:47:50.423Z,100662.12
2018-09-25T00:50:24.115Z,100662.02
2018-09-25T00:52:57.755Z,100665.30
2018-09-25T00:55:31.265Z,100663.38
2018-09-25T00:58:05.030Z,100668.74
2018-09-25T01:00:38.547Z,100672.48
2018-09-25T01:03:12.331Z,100671.80
2018-09-25T01:05:46.069Z,100678.18
2018-09-25T01:08:19.825Z,100672.48
2018-09-25T01:10:53.358Z,100681.03
2018-09-25T01:13:26.859Z,100682.30
2018-09-25T01:16:00.517Z,100687.30
2018-09-25T01:18:34.070Z,100684.25
2018-09-25T01:21:07.775Z,100680.87
2018-09-25T01:23:41.318Z,100681.74
2018-09-25T01:26:14.946Z,100680.58
2018-09-25T01:28:48.849Z,100686.28
2018-09-25T01:31:22.563Z,100688.01
2018-09-25T01:33:56.148Z,100687.77
2018-09-25T01:36:29.663Z,100688.30
2018-09-25T01:39:03.273Z,100687.64
2018-09-25T01:41:37.020Z,100691.91
2018-09-25T01:44:10.457Z,100697.81
2018-09-25T01:46:57.675Z,100702.68
2018-09-25T01:49:31.435Z,100704.47
2018-09-25T01:52:05.207Z,100704.67
2018-09-25T01:54:38.990Z,100705.07
2018-09-25T01:57:12.489Z,100699.38
2018-09-25T01:59:46.459Z,100706.06
2018-09-25T02:02:20.030Z,100701.49
2018-09-25T02:04:53.883Z,100706.16
2018-09-25T02:07:27.467Z,100714.87
2018-09-25T02:10:01.002Z,100715.37
2018-09-25T02:12:34.399Z,100713.84
2018-09-25T02:15:07.871Z,100715.09
2018-09-25T02:17:41.416Z,100723.06
2018-09-25T02:20:15.126Z,100711.52
2018-09-25T02:22:48.672Z,100717.91
2018-09-25T02:25:22.247Z,100722.41
2018-09-25T02:27:55.771Z,100725.70
2018-09-25T02:30:29.231Z,100728.81
2018-09-25T02:33:02.748Z,100726.59
2018-09-25T02:35:36.653Z,100725.40
2018-09-25T02:38:10.263Z,100735.27
2018-09-25T02:40:43.865Z,100736.31
2018-09-25T02:43:17.490Z,100737.11
2018-09-25T02:45:51.197Z,100745.31
2018-09-25T02:48:24.816Z,100751.55
2018-09-25T02:50:58.354Z,100749.55
2018-09-25T02:53:31.852Z,100741.87
2018-09-25T02:56:05.495Z,100738.96
2018-09-25T02:58:39.106Z,100743.20
2018-09-25T03:01:12.833Z,100745.13
2018-09-25T03:03:46.503Z,100744.30
2018-09-25T03:06:20.233Z,100745.17
2018-09-25T03:08:53.726Z,100736.55
2018-09-25T03:11:27.374Z,100740.99
2018-09-25T03:14:00.895Z,100750.67
2018-09-25T03:16:34.630Z,100743.58
2018-09-25T03:19:08.202Z,100751.23
2018-09-25T03:21:41.889Z,100748.59
2018-09-25T03:24:15.409Z,100740.10
2018-09-25T03:26:49.130Z,100755.48
2018-09-25T03:29:22.606Z,100747.79
2018-09-25T03:31:56.051Z,100750.31
2018-09-25T03:34:29.962Z,100750.17
2018-09-25T03:37:03.559Z,100750.58
2018-09-25T03:39:37.089Z,100757.70
2018-09-25T03:42:11.211Z,100760.21
2018-09-25T03:44:44.694Z,100765.91
2018-09-25T03:47:18.262Z,100761.63
2018-09-25T03:49:51.875Z,100766.52
2018-09-25T03:52:25.623Z,100767.66
2018-09-25T03:54:59.391Z,100764.92
2018-09-25T03:57:33.117Z,100771.44
2018-09-25T04:00:06.822Z,100774.88
2018-09-25T04:02:40.589Z,100773.95
2018-09-25T04:05:14.456Z,100778.45
2018-09-25T04:07:47.991Z,100778.20
2018-09-25T04:10:21.637Z,100778.52
2018-09-25T04:12:55.414Z,100777.52
2018-09-25T04:15:29.131Z,100776.20
2018-09-25T04:18:02.935Z,100780.16
2018-09-25T04:20:36.631Z,100789.27
2018-09-25T04:23:10.082Z,100787.72
2018-09-25T04:25:43.865Z,100793.02
2018-09-25T04:28:17.425Z,100796.80
2018-09-25T04:30:50.827Z,100802.56
2018-09-25T04:33:24.534Z,100793.08
2018-09-25T04:35:58.328Z,100803.31
2018-09-25T04:38:31.967Z,100807.48
2018-09-25T04:41:05.570Z,100807.23
2018-09-25T04:43:39.076Z,100814.28
2018-09-25T04:46:12.710Z,100810.41
2018-09-25T04:48:46.234Z,100810.53
2018-09-25T04:51:19.722Z,100818.88
2018-09-25T04:53:53.357Z,100819.00
2018-09-25T04:56:26.949Z,100816.50
2018-09-25T04:59:00.485Z,100822.17
2018-09-25T05:01:34.282Z,100816.63
2018-09-25T05:04:08.164Z,100819.00
2018-09-25T05:06:41.891Z,100818.75
2018-09-25T05:09:15.654Z,100821.00
2018-09-25T05:11:49.374Z,100830.02
2018-09-25T05:14:24.334Z,100831.20
2018-09-25T05:16:58.006Z,100837.09
2018-09-25T05:19:31.879Z,100840.02
2018-09-25T05:22:05.630Z,100845.12
2018-09-25T05:24:39.569Z,100846.80
2018-09-25T05:27:13.291Z,100837.89
2018-09-25T05:29:47.048Z,100845.84
2018-09-25T05:32:20.958Z,100842.61
2018-09-25T05:34:54.600Z,100855.27
2018-09-25T05:37:28.308Z,100862.03
2018-09-25T05:40:01.986Z,100862.83
2018-09-25T05:42:35.774Z,100856.94
2018-09-25T05:45:09.505Z,100868.47
2018-09-25T05:47:43.303Z,100870.20
2018-09-25T05:50:17.356Z,100867.61
2018-09-25T05:52:52.186Z,100866.08
2018-09-25T05:55:27.088Z,100864.35
2018-09-25T05:58:01.696Z,100879.82
2018-09-25T06:00:36.159Z,100878.27
2018-09-25T06:03:11.763Z,100872.84
2018-09-25T06:05:46.284Z,100867.71
2018-09-25T06:08:19.875Z,100860.45
2018-09-25T06:10:53.375Z,100859.36
2018-09-25T06:13:27.326Z,100865.30
2018-09-25T06:16:01.227Z,100873.59
2018-09-25T06:18:35.120Z,100874.66
2018-09-25T06:21:08.628Z,100868.02
2018-09-25T06:23:42.170Z,100871.77
2018-09-25T06:26:15.947Z,100872.17
2018-09-25T06:28:49.908Z,100873.88
2018-09-25T06:31:23.621Z,100879.11
2018-09-25T06:33:57.752Z,100883.89
2018-09-25T06:36:31.871Z,100892.45
2018-09-25T06:39:05.571Z,100889.59
2018-09-25T06:41:39.512Z,100888.86
2018-09-25T06:44:13.201Z,100894.27
2018-09-25T06:46:46.994Z,100899.05
2018-09-25T06:49:20.752Z,100903.30
2018-09-25T06:51:54.422Z,100904.13
2018-09-25T06:54:28.195Z,100908.47
2018-09-25T06:57:01.946Z,100904.19
2018-09-25T06:59:35.695Z,100911.16
2018-09-25T07:02:09.380Z,100913.41
2018-09-25T07:04:43.314Z,100915.03
2018-09-25T07:07:17.113Z,100908.37
2018-09-25T07:09:51.086Z,100927.10
2018-09-25T07:12:24.748Z,100921.26
2018-09-25T07:14:58.513Z,100931.09
2018-09-25T07:17:32.615Z,100930.90
2018-09-25T07:20:06.186Z,100933.41
2018-09-25T07:22:40.100Z,100944.64
2018-09-25T07:25:13.822Z,100942.52
2018-09-25T07:27:47.703Z,100946.23
2018-09-25T07:30:21.421Z,100950.47
2018-09-25T07:32:55.178Z,100950.22
2018-09-25T07:35:29.260Z,100955.14
2018-09-25T07:38:03.078Z,100953.98
2018-09-25T07:40:38.199Z,100967.68
2018-09-25T07:43:11.961Z,100965.05
2018-09-25T07:45:45.571Z,100965.95
2018-09-25T07:48:19.399Z,100968.15
2018-09-25T07:50:53.139Z,100962.14
2018-09-25T07:53:27.087Z,100963.77
2018-09-25T07:56:00.911Z,100968.25
2018-09-25T07:58:34.723Z,100965.23
2018-09-25T08:01:08.409Z,100976.16
2018-09-25T08:03:42.385Z,100972.80
2018-09-25T08:06:16.015Z,100976.58
2018-09-25T08:08:49.719Z,100972.91
2018-09-25T08:11:23.504Z,100975.86
2018-09-25T08:13:57.375Z,100984.30
2018-09-25T08:16:31.287Z,100982.98
2018-09-25T08:19:05.049Z,100985.01
2018-09-25T08:21:38.735Z,100988.87
2018-09-25T08:24:12.529Z,100988.75
2018-09-25T08:26:46.320Z,100986.52
2018-09-25T08:29:19.997Z,100983.27
2018-09-25T08:31:53.630Z,100985.81
2018-09-25T08:34:27.573Z,100982.91
2018-09-25T08:37:01.210Z,100998.55
2018-09-25T08:39:35.082Z,100999.31
2018-09-25T08:42:08.877Z,100990.59
2018-09-25T08:44:42.589Z,100996.47
2018-09-25T08:47:16.413Z,100992.97
2018-09-25T08:49:51.719Z,100996.17
2018-09-25T08:52:25.312Z,101009.42
2018-09-25T08:54:59.002Z,101007.48
2018-09-25T08:57:32.924Z,101004.91
2018-09-25T09:00:06.811Z,101007.72
2018-09-25T09:02:40.555Z,100996.45
2018-09-25T09:05:14.253Z,101003.97
2018-09-25T09:07:48.014Z,101014.95
2018-09-25T09:10:21.712Z,101022.23
2018-09-25T09:12:55.843Z,101016.52
2018-09-25T09:15:30.278Z,101011.98
2018-09-25T09:18:04.033Z,101019.72
2018-09-25T09:20:38.186Z,101012.03
2018-09-25T09:23:12.207Z,101016.58
2018-09-25T09:25:46.420Z,101006.85
2018-09-25T09:28:20.297Z,101010.19
2018-09-25T09:30:54.455Z,101006.53
2018-09-25T09:33:28.517Z,101019.09
2018-09-25T09:36:02.226Z,101015.44
2018-09-25T09:38:36.010Z,101011.56
2018-09-25T09:41:09.891Z,101015.48
2018-09-25T09:43:43.884Z,101009.02
2018-09-25T09:46:17.502Z,101008.66
2018-09-25T09:48:50.994Z,101003.39
2018-09-25T09:51:24.829Z,101009.50
2018-09-25T09:53:58.511Z,101013.53
2018-09-25T09:56:32.839Z,101020.17
2018-09-25T09:59:07.090Z,101015.41
2018-09-25T10:01:40.779Z,101016.15
2018-09-25T10:04:14.633Z,101026.80
2018-09-25T10:06:48.669Z,101023.05
2018-09-25T10:09:22.383Z,101026.31
2018-09-25T10:11:56.516Z,101024.95
2018-09-25T10:14:30.174Z,101015.11
2018-09-25T10:17:03.795Z,101014.91
2018-09-25T10:19:37.521Z,101018.92
2018-09-25T10:22:11.164Z,101023.34
2018-09-25T10:24:44.704Z,101020.35
2018-09-25T10:27:22.295Z,101022.76
2018-09-25T10:29:56.038Z,101023.73
2018-09-25T10:32:30.384Z,101013.72
2018-09-25T10:35:04.376Z,101011.11
2018-09-25T10:37:37.937Z,101016.33
2018-09-25T10:40:12.004Z,101017.81
2018-09-25T10:42:45.755Z,101011.55
2018-09-25T10:45:19.533Z,101012.37
2018-09-25T10:47:53.304Z,101024.16
2018-09-25T10:50:27.141Z,101022.19
2018-09-25T10:53:01.038Z,101021.47
2018-09-25T10:55:34.862Z,101023.30
2018-09-25T10:58:08.650Z,101026.51
2018-09-25T11:00:42.510Z,101019.20
2018-09-25T11:03:16.476Z,101024.05
2018-09-25T11:05:50.097Z,101023.92
2018-09-25T11:08:23.934Z,101018.86
2018-09-25T11:10:57.736Z,101020.83
2018-09-25T11:13:31.335Z,101026.13
2018-09-25T11:16:05.526Z,101019.23
2018-09-25T11:18:39.260Z,101026.24
2018-09-25T11:21:13.021Z,101018.64
2018-09-25T11:23:46.727Z,101022.86
2018-09-25T11:29:02.919Z,101027.91
2018-09-25T11:31:36.705Z,101031.98
2018-09-25T11:34:10.532Z,101028.16
2018-09-25T11:36:44.104Z,101026.97
2018-09-25T11:39:17.730Z,101031.60
2018-09-25T11:41:51.418Z,101023.73
2018-09-25T11:44:24.982Z,101033.48
2018-09-25T11:46:58.684Z,101031.05
2018-09-25T11:49:32.303Z,101030.34
2018-09-25T11:52:06.183Z,101024.27
2018-09-25T11:54:40.132Z,101028.71
2018-09-25T11:57:14.022Z,101017.33
2018-09-25T11:59:47.850Z,101010.51
2018-09-25T12:02:21.670Z,101006.49
2018-09-25T12:04:55.849Z,101009.11
2018-09-25T12:07:29.814Z,101005.25
2018-09-25T12:10:03.617Z,101012.27
2018-09-25T12:12:37.653Z,101001.77
2018-09-25T12:15:11.623Z,100998.55
2018-09-25T12:17:45.435Z,100997.79
2018-09-25T12:20:19.222Z,100999.09
2018-09-25T12:22:53.223Z,100997.97
2018-09-25T12:25:26.792Z,100995.95
2018-09-25T12:28:00.663Z,100985.13
2018-09-25T12:30:34.641Z,100987.86
2018-09-25T12:33:08.569Z,100991.95
2018-09-25T12:35:42.198Z,100991.09
2018-09-25T12:38:15.946Z,100999.27
2018-09-25T12:40:49.711Z,100993.93
2018-09-25T12:43:23.464Z,100981.40
2018-09-25T12:45:57.284Z,100977.81
2018-09-25T12:48:31.412Z,100973.66
2018-09-25T12:51:05.541Z,100975.87
2018-09-25T12:53:39.034Z,100970.56
2018-09-25T12:56:12.978Z,100974.66
2018-09-25T12:58:46.784Z,100971.42
2018-09-25T13:01:20.680Z,100974.17
2018-09-25T13:03:54.309Z,100967.78
2018-09-25T13:06:28.577Z,100964.21
2018-09-25T13:09:02.410Z,100961.27
2018-09-25T13:11:36.182Z,100960.56
2018-09-25T13:14:10.127Z,100959.67
2018-09-25T13:16:44.119Z,100958.97
2018-09-25T13:19:17.832Z,100960.06
2018-09-25T13:21:51.669Z,100948.14
2018-09-25T13:24:25.798Z,100955.11
2018-09-25T13:26:59.587Z,100957.05
2018-09-25T13:29:33.200Z,100960.52
2018-09-25T13:32:06.899Z,100951.39
2018-09-25T13:34:40.440Z,100947.88
2018-09-25T13:37:14.167Z,100950.69
2018-09-25T13:39:48.038Z,100949.34
2018-09-25T13:42:21.504Z,100943.36
2018-09-25T13:44:55.066Z,100953.36
2018-09-25T13:47:28.950Z,100944.22
2018-09-25T13:50:02.651Z,100952.83
2018-09-25T13:52:36.496Z,100951.84
2018-09-25T13:55:10.325Z,100947.47
2018-09-25T13:57:44.099Z,100941.91
2018-09-25T14:00:17.718Z,100935.69
2018-09-25T14:02:51.514Z,100933.88
2018-09-25T14:05:25.446Z,100924.70
2018-09-25T14:07:59.112Z,100918.36
2018-09-25T14:10:32.964Z,100913.45
2018-09-25T14:13:06.825Z,100901.67
2018-09-25T14:15:40.591Z,100906.86
2018-09-25T14:18:14.711Z,100908.30
2018-09-25T14:20:48.620Z,100906.06
2018-09-25T14:23:22.765Z,100908.25
2018-09-25T14:25:56.694Z,100902.48
2018-09-25T14:28:30.623Z,100908.81
2018-09-25T14:31:04.506Z,100907.17
2018-09-25T14:33:38.340Z,100902.12
2018-09-25T14:36:12.295Z,100907.58
2018-09-25T14:38:47.152Z,100904.47
2018-09-25T14:41:20.870Z,100905.00
2018-09-25T14:43:54.878Z,100903.79
2018-09-25T14:46:28.837Z,100912.14
2018-09-25T14:49:02.767Z,100910.38
2018-09-25T14:51:36.934Z,100901.05
2018-09-25T14:54:10.779Z,100885.70
2018-09-25T14:56:44.495Z,100885.59
2018-09-25T14:59:18.544Z,100892.58
2018-09-25T15:01:52.336Z,100888.02
2018-09-25T15:04:25.940Z,100888.50
2018-09-25T15:06:59.935Z,100891.82
2018-09-25T15:09:33.555Z,100889.69
2018-09-25T15:12:07.370Z,100886.68
2018-09-25T15:14:41.065Z,100878.30
2018-09-25T15:17:14.985Z,100881.05
2018-09-25T15:19:48.868Z,100875.58
2018-09-25T15:22:22.737Z,100875.25
2018-09-25T15:24:57.842Z,100873.53
2018-09-25T15:27:31.723Z,100880.78
2018-09-25T15:30:05.365Z,100881.41
2018-09-25T15:32:39.479Z,100874.05
2018-09-25T15:35:13.379Z,100880.75
2018-09-25T15:37:46.958Z,100871.89
2018-09-25T15:40:20.955Z,100873.81
2018-09-25T15:42:54.719Z,100881.56
2018-09-25T15:45:28.686Z,100875.35
2018-09-25T15:48:02.397Z,100877.27
2018-09-25T15:50:36.158Z,100877.34
2018-09-25T15:53:09.758Z,100882.20
2018-09-25T15:55:43.780Z,100872.30
2018-09-25T15:58:17.451Z,100889.97
2018-09-25T16:00:51.260Z,100883.02
2018-09-25T16:03:24.874Z,100882.91
2018-09-25T16:05:58.665Z,100892.00
2018-09-25T16:08:32.778Z,100884.25
2018-09-25T16:11:06.472Z,100883.94
2018-09-25T16:13:39.926Z,100893.02
2018-09-25T16:16:13.805Z,100883.95
2018-09-25T16:18:47.978Z,100887.48
2018-09-25T16:21:21.624Z,100891.64
2018-09-25T16:23:55.164Z,100903.64
2018-09-25T16:26:28.888Z,100902.13
2018-09-25T16:29:02.770Z,100898.83
2018-09-25T16:31:36.299Z,100904.98
2018-09-25T16:34:09.734Z,100909.94
2018-09-25T16:36:43.665Z,100910.64
2018-09-25T16:39:17.582Z,100914.14
2018-09-25T16:42:15.953Z,100915.12
2018-09-25T16:45:10.829Z,100926.58
2018-09-25T16:47:44.880Z,100926.45
2018-09-25T16:50:20.092Z,100927.76
2018-09-25T16:52:53.761Z,100924.94
2018-09-25T16:55:48.571Z,100929.39
2018-09-25T16:58:22.129Z,100929.87
2018-09-25T17:00:55.727Z,100923.54
2018-09-25T17:08:38.946Z,100930.60
2018-09-25T17:11:12.429Z,100931.33
2018-09-25T17:13:45.962Z,100938.30
2018-09-25T17:16:19.804Z,100927.97
2018-09-25T17:18:53.538Z,100928.69
2018-09-25T17:21:27.086Z,100925.47
2018-09-25T17:24:00.682Z,100937.38
2018-09-25T17:26:34.275Z,100943.39
2018-09-25T17:29:08.085Z,100949.55
2018-09-25T17:31:41.730Z,100951.06
2018-09-25T17:34:15.286Z,100956.63
2018-09-25T17:36:48.864Z,100966.73
2018-09-25T17:39:22.496Z,100972.30
2018-09-25T17:41:56.093Z,100973.78
2018-09-25T17:44:29.830Z,100974.11
2018-09-25T17:47:03.388Z,100966.05
2018-09-25T17:49:36.889Z,100975.38
2018-09-25T17:52:10.579Z,100975.95
2018-09-25T17:54:44.191Z,100984.31
2018-09-25T17:57:18.047Z,100971.41
2018-09-25T17:59:51.620Z,100979.29
2018-09-25T18:02:25.289Z,100980.77
2018-09-25T18:04:58.883Z,100976.63
2018-09-25T18:10:06.634Z,100982.98
2018-09-25T18:12:40.900Z,100980.23
2018-09-25T18:15:14.496Z,100984.22
2018-09-25T18:17:48.146Z,100988.16
2018-09-25T18:20:21.749Z,100984.38
2018-09-25T18:22:55.354Z,100983.59
2018-09-25T18:25:29.205Z,100982.13
2018-09-25T18:28:03.043Z,100981.88
2018-09-25T18:30:36.905Z,100984.77
2018-09-25T18:33:10.612Z,100987.42
2018-09-25T18:35:44.186Z,100980.43
2018-09-25T18:38:17.943Z,100986.48
2018-09-25T18:40:51.510Z,100980.63
2018-09-25T18:43:25.279Z,100975.78
2018-09-25T18:45:58.731Z,100972.97
2018-09-25T18:48:32.443Z,100970.52
2018-09-25T18:51:06.044Z,100965.63
2018-09-25T18:53:39.738Z,100955.11
2018-09-25T18:56:13.546Z,100946.61
2018-09-25T18:58:47.188Z,100949.33
2018-09-25T19:01:21.059Z,100943.09
2018-09-25T19:03:54.806Z,100937.72
2018-09-25T19:06:28.291Z,100931.73
2018-09-25T19:09:01.772Z,100924.94
2018-09-25T19:11:35.322Z,100923.11
2018-09-25T19:14:09.005Z,100923.55
2018-09-25T19:16:42.662Z,100922.58
2018-09-25T19:19:16.360Z,100923.12
2018-09-25T19:21:49.993Z,100926.71
2018-09-25T19:24:23.669Z,100928.88
2018-09-25T19:26:57.322Z,100929.77
2018-09-25T19:29:31.114Z,100925.91
2018-09-25T19:32:04.937Z,100938.43
2018-09-25T19:34:38.454Z,100949.52
2018-09-25T19:37:12.184Z,100952.05
2018-09-25T19:39:45.807Z,100956.81
2018-09-25T19:42:19.368Z,100963.05
2018-09-25T19:44:53.024Z,100971.47
2018-09-25T19:47:26.475Z,100968.53
2018-09-25T19:50:00.187Z,100967.55
2018-09-25T19:52:34.021Z,100962.80
2018-09-25T19:55:07.629Z,100958.82
2018-09-25T19:57:41.374Z,100955.67
2018-09-25T20:00:14.950Z,100957.12
2018-09-25T20:02:49.118Z,100955.52
2018-09-25T20:05:23.103Z,100952.13
2018-09-25T20:07:56.961Z,100957.88
2018-09-25T20:10:30.863Z,100954.27
2018-09-25T20:13:04.834Z,100955.53
2018-09-25T20:15:38.688Z,100955.66
2018-09-25T20:18:12.426Z,100960.25
2018-09-25T20:20:46.208Z,100969.80
2018-09-25T20:23:19.965Z,100970.23
2018-09-25T20:25:53.739Z,100969.23
2018-09-25T20:28:27.496Z,100966.41
2018-09-25T20:31:01.141Z,100964.77
2018-09-25T20:33:34.851Z,100962.52
2018-09-25T20:36:08.425Z,100958.41
2018-09-25T20:38:42.295Z,100952.04
2018-09-25T20:41:16.009Z,100956.99
2018-09-25T20:43:49.614Z,100959.36
2018-09-25T20:46:23.425Z,100965.30
2018-09-25T20:48:57.047Z,100959.72
2018-09-25T20:51:30.642Z,100969.41
2018-09-25T20:54:04.497Z,100971.48
2018-09-25T20:56:38.266Z,100964.79
2018-09-25T20:59:11.859Z,100960.13
2018-09-25T21:01:45.434Z,100953.39
2018-09-25T21:04:19.200Z,100950.13
2018-09-25T21:06:52.787Z,100956.50
2018-09-25T21:09:26.643Z,100956.44
2018-09-25T21:12:00.197Z,100952.20
2018-09-25T21:14:33.928Z,100955.83
2018-09-25T21:17:07.565Z,100959.97
2018-09-25T21:19:41.312Z,100952.89
2018-09-25T21:22:15.042Z,100949.02
2018-09-25T21:24:48.776Z,100952.89
2018-09-25T21:27:22.445Z,100951.91
2018-09-25T21:29:56.054Z,100953.70
2018-09-25T21:32:29.540Z,100947.36
2018-09-25T21:35:03.182Z,100943.66
2018-09-25T21:37:36.709Z,100926.53
2018-09-25T21:40:10.472Z,100931.08
2018-09-25T21:42:44.142Z,100946.72
2018-09-25T21:45:17.755Z,100946.20
2018-09-25T21:47:51.499Z,100942.02
2018-09-25T21:50:25.276Z,100930.09
2018-09-25T21:52:58.811Z,100925.31
2018-09-25T21:55:32.314Z,100930.81
2018-09-25T21:58:06.067Z,100926.27
2018-09-25T22:00:39.798Z,100929.75
2018-09-25T22:03:13.312Z,100932.09
2018-09-25T22:05:47.118Z,100925.53
2018-09-25T22:08:20.885Z,100921.00
2018-09-25T22:10:54.700Z,100912.20
2018-09-25T22:13:28.392Z,100913.11
2018-09-25T22:16:02.190Z,100921.16
2018-09-25T22:18:35.839Z,100913.52
2018-09-25T22:21:09.509Z,100901.50
2018-09-25T22:23:43.105Z,100894.42
2018-09-25T22:26:16.703Z,100899.14
2018-09-25T22:28:50.346Z,100906.14
2018-09-25T22:31:24.058Z,100894.19
2018-09-25T22:33:57.694Z,100889.08
2018-09-25T22:36:31.432Z,100873.93
2018-09-25T22:39:05.171Z,100880.95
2018-09-25T22:41:38.906Z,100876.88
2018-09-25T22:44:12.558Z,100875.36
2018-09-25T22:46:46.454Z,100866.16
2018-09-25T22:49:20.239Z,100869.95
2018-09-25T22:51:53.920Z,100863.86
2018-09-25T22:54:27.563Z,100848.73
2018-09-25T22:57:01.374Z,100850.95
2018-09-25T22:59:35.069Z,100845.95
2018-09-25T23:02:08.682Z,100851.01
2018-09-25T23:04:42.333Z,100849.97
2018-09-25T23:07:16.184Z,100863.91
2018-09-25T23:09:49.945Z,100856.73
2018-09-25T23:12:23.775Z,100845.41
2018-09-25T23:14:57.402Z,100850.39
2018-09-25T23:17:31.153Z,100859.89
2018-09-25T23:20:04.892Z,100859.22
2018-09-25T23:22:38.664Z,100856.44
2018-09-25T23:25:12.342Z,100859.77
2018-09-25T23:27:46.187Z,100861.00
2018-09-25T23:30:19.929Z,100856.22
2018-09-25T23:32:53.591Z,100860.81
2018-09-25T23:35:27.433Z,100864.72
2018-09-25T23:38:01.103Z,100862.34
2018-09-25T23:40:34.778Z,100863.16
2018-09-25T23:43:07.373Z,100865.80
2018-09-25T23:45:40.973Z,100864.89
2018-09-25T23:48:18.701Z,100865.23
2018-09-25T23:50:54.768Z,100858.45
2018-09-25T23:53:32.341Z,100847.18
2018-09-25T23:56:06.019Z,100846.02
2018-09-25T23:58:36.512Z,100836.52
